createdAt,value
2019-01-16T00:01:16.807Z,-0.53
2019-01-16T00:05:00.149Z,-0.55
2019-01-16T00:08:43.368Z,-0.69
2019-01-16T00:12:26.389Z,-0.84
2019-01-16T00:16:09.367Z,-0.74
2019-01-16T00:19:52.382Z,-0.73
2019-01-16T00:27:06.072Z,-0.74
2019-01-16T00:30:49.145Z,-0.86
2019-01-16T00:33:57.848Z,-0.98
2019-01-16T00:37:06.764Z,-0.92
2019-01-16T00:40:31.490Z,-0.98
2019-01-16T00:43:49.814Z,-0.92
2019-01-16T00:47:33.071Z,-1.10
2019-01-16T00:51:16.078Z,-1.08
2019-01-16T00:54:59.084Z,-0.94
2019-01-16T00:58:42.096Z,-1.06
2019-01-16T01:06:28.576Z,-1.10
2019-01-16T01:10:11.583Z,-1.08
2019-01-16T01:14:15.388Z,-1.14
2019-01-16T01:21:43.001Z,-0.88
2019-01-16T01:25:26.253Z,-0.79
2019-01-16T01:36:43.397Z,-1.06
2019-01-16T01:40:47.208Z,-1.00
2019-01-16T01:44:30.515Z,-0.85
2019-01-16T01:48:13.737Z,-0.98
2019-01-16T01:51:56.754Z,-1.12
2019-01-16T01:55:40.100Z,-1.11
2019-01-16T01:59:23.177Z,-0.97
2019-01-16T02:03:06.178Z,-1.07
2019-01-16T02:10:19.863Z,-1.10
2019-01-16T02:14:02.841Z,-1.21
2019-01-16T02:17:46.099Z,-1.21
2019-01-16T02:25:05.605Z,-1.23
2019-01-16T02:28:48.610Z,-1.21
2019-01-16T02:32:31.622Z,-1.26
2019-01-16T02:36:14.863Z,-1.29
2019-01-16T02:39:58.199Z,-1.30
2019-01-16T02:43:17.018Z,-1.50
2019-01-16T02:47:00.052Z,-1.50
2019-01-16T02:50:43.051Z,-1.43
2019-01-16T02:54:05.198Z,-1.49
2019-01-16T02:57:48.465Z,-1.52
2019-01-16T03:01:31.462Z,-1.53
2019-01-16T03:04:38.398Z,-1.58
2019-01-16T03:08:21.427Z,-1.67
2019-01-16T03:12:04.558Z,-1.65
2019-01-16T03:19:18.483Z,-1.55
2019-01-16T03:23:01.483Z,-1.73
2019-01-16T03:26:07.741Z,-1.81
2019-01-16T03:29:29.937Z,-1.81
2019-01-16T03:32:36.202Z,-1.77
2019-01-16T03:35:54.488Z,-1.84
2019-01-16T03:39:03.415Z,-1.94
2019-01-16T03:42:18.636Z,-2.05
2019-01-16T03:45:30.313Z,-2.06
2019-01-16T03:48:36.582Z,-1.93
2019-01-16T03:55:50.782Z,-2.19
2019-01-16T03:59:33.850Z,-2.06
2019-01-16T04:03:17.094Z,-2.11
2019-01-16T04:10:51.596Z,-2.17
2019-01-16T04:14:34.597Z,-2.32
2019-01-16T04:25:38.933Z,-2.53
2019-01-16T04:33:06.640Z,-2.37
2019-01-16T04:36:49.600Z,-2.31
2019-01-16T04:51:42.161Z,-2.61
2019-01-16T04:55:25.798Z,-2.53
2019-01-16T05:02:40.219Z,-2.65
2019-01-16T05:10:47.518Z,-2.64
2019-01-16T05:14:30.774Z,-2.73
2019-01-16T05:18:13.782Z,-2.52
2019-01-16T05:22:11.514Z,-2.59
2019-01-16T05:25:16.356Z,-2.72
2019-01-16T05:28:59.361Z,-2.66
2019-01-16T05:32:42.836Z,-2.66
2019-01-16T05:39:56.858Z,-2.65
2019-01-16T05:43:17.970Z,-2.78
2019-01-16T05:47:01.257Z,-2.70
2019-01-16T05:50:44.269Z,-2.42
2019-01-16T05:54:27.346Z,-2.63
2019-01-16T05:58:10.344Z,-2.61
2019-01-16T06:01:53.359Z,-2.81
2019-01-16T06:05:36.356Z,-2.85
2019-01-16T06:09:00.094Z,-2.94
2019-01-16T06:12:18.298Z,-2.95
2019-01-16T06:16:01.313Z,-3.02
2019-01-16T06:19:44.311Z,-3.04
2019-01-16T06:23:27.567Z,-3.09
2019-01-16T06:30:45.528Z,-3.11
2019-01-16T06:38:13.116Z,-3.13
2019-01-16T06:41:31.711Z,-3.10
2019-01-16T06:45:14.704Z,-3.22
2019-01-16T06:48:26.668Z,-3.24
2019-01-16T06:51:38.883Z,-3.31
2019-01-16T06:55:01.071Z,-3.35
2019-01-16T06:58:13.547Z,-3.37
2019-01-16T07:01:28.247Z,-3.33
2019-01-16T07:04:40.449Z,-3.36
2019-01-16T07:07:47.576Z,-3.20
2019-01-16T07:11:05.799Z,-3.22
2019-01-16T07:14:15.086Z,-3.08
2019-01-16T07:17:28.579Z,-3.08
2019-01-16T07:20:43.822Z,-2.95
2019-01-16T07:23:50.127Z,-2.84
2019-01-16T07:26:56.431Z,-2.75
2019-01-16T07:30:11.437Z,-2.71
2019-01-16T07:33:23.901Z,-2.63
2019-01-16T07:36:46.246Z,-2.52
2019-01-16T07:39:58.372Z,-2.40
2019-01-16T07:43:03.091Z,-2.31
2019-01-16T07:46:18.767Z,-2.19
2019-01-16T07:49:36.392Z,-2.09
2019-01-16T07:52:43.252Z,-1.99
2019-01-16T07:55:56.007Z,-1.87
2019-01-16T07:59:02.301Z,-1.78
2019-01-16T08:02:08.719Z,-1.72
2019-01-16T08:05:13.119Z,-1.54
2019-01-16T08:08:35.282Z,-1.36
2019-01-16T08:11:41.552Z,-1.15
2019-01-16T08:14:47.876Z,-1.07
2019-01-16T08:18:11.993Z,-0.85
2019-01-16T08:21:18.856Z,-0.69
2019-01-16T08:24:25.436Z,-0.69
2019-01-16T08:27:40.880Z,-0.63
2019-01-16T08:30:56.277Z,-0.57
2019-01-16T08:34:02.581Z,-0.52
2019-01-16T08:37:15.163Z,-0.46
2019-01-16T08:40:33.293Z,-0.30
2019-01-16T08:43:45.846Z,-0.10
2019-01-16T08:46:52.229Z,0.07
2019-01-16T08:50:01.199Z,0.13
2019-01-16T08:53:07.877Z,0.23
2019-01-16T08:56:30.811Z,0.39
2019-01-16T08:59:52.179Z,0.57
2019-01-16T09:03:16.592Z,0.70
2019-01-16T09:06:28.631Z,0.86
2019-01-16T09:09:53.977Z,1.04
2019-01-16T09:13:18.071Z,1.14
2019-01-16T09:16:42.466Z,1.22
2019-01-16T09:19:53.612Z,1.32
2019-01-16T09:23:06.950Z,1.43
2019-01-16T09:26:25.649Z,1.57
2019-01-16T09:29:32.071Z,1.64
2019-01-16T09:32:51.427Z,1.60
2019-01-16T09:36:16.521Z,1.63
2019-01-16T09:39:39.381Z,1.71
2019-01-16T09:42:55.313Z,1.69
2019-01-16T09:46:18.369Z,1.78
2019-01-16T09:49:40.925Z,1.76
2019-01-16T09:52:45.315Z,1.83
2019-01-16T09:56:06.831Z,1.99
2019-01-16T09:59:15.702Z,2.11
2019-01-16T10:02:38.044Z,2.22
2019-01-16T10:05:46.786Z,2.39
2019-01-16T10:08:55.719Z,2.43
2019-01-16T10:12:02.033Z,2.62
2019-01-16T10:15:14.946Z,2.76
2019-01-16T10:18:21.365Z,2.82
2019-01-16T10:21:45.217Z,3.02
2019-01-16T10:24:57.278Z,3.24
2019-01-16T10:28:03.494Z,3.31
2019-01-16T10:31:11.027Z,3.46
2019-01-16T10:34:17.413Z,3.50
2019-01-16T10:37:42.442Z,3.52
2019-01-16T10:40:59.206Z,3.68
2019-01-16T10:44:18.039Z,3.75
2019-01-16T10:47:29.751Z,3.72
2019-01-16T10:50:36.022Z,3.75
2019-01-16T10:53:51.086Z,3.70
2019-01-16T10:57:09.541Z,3.73
2019-01-16T11:00:28.616Z,3.84
2019-01-16T11:03:50.946Z,3.88
2019-01-16T11:06:57.187Z,3.89
2019-01-16T11:10:20.233Z,4.08
2019-01-16T11:13:35.958Z,4.16
2019-01-16T11:16:40.343Z,4.22
2019-01-16T11:19:49.343Z,4.27
2019-01-16T11:23:04.840Z,4.39
2019-01-16T11:26:20.331Z,4.44
2019-01-16T11:29:32.010Z,4.53
2019-01-16T11:32:36.808Z,4.48
2019-01-16T11:35:43.070Z,4.44
2019-01-16T11:38:49.657Z,4.46
2019-01-16T11:41:56.255Z,4.47
2019-01-16T11:45:00.895Z,4.52
2019-01-16T11:48:23.595Z,4.52
2019-01-16T11:51:46.180Z,4.52
2019-01-16T11:54:54.082Z,4.20
2019-01-16T11:58:00.810Z,3.72
2019-01-16T12:01:12.980Z,3.40
2019-01-16T12:04:35.331Z,3.35
2019-01-16T12:07:47.165Z,3.44
2019-01-16T12:11:01.138Z,3.66
2019-01-16T12:14:07.723Z,3.85
2019-01-16T12:17:22.845Z,4.07
2019-01-16T12:20:29.110Z,4.22
2019-01-16T12:23:51.725Z,4.40
2019-01-16T12:27:12.680Z,4.49
2019-01-16T12:30:22.884Z,4.49
2019-01-16T12:33:44.577Z,4.54
2019-01-16T12:36:59.925Z,4.59
2019-01-16T12:40:25.090Z,4.60
2019-01-16T12:43:34.667Z,4.91
2019-01-16T12:46:43.447Z,5.83
2019-01-16T12:50:06.159Z,6.01
2019-01-16T12:53:13.304Z,5.99
2019-01-16T12:56:22.773Z,6.14
2019-01-16T12:59:32.730Z,5.74
2019-01-16T13:02:45.281Z,5.45
2019-01-16T13:05:57.720Z,5.30
2019-01-16T13:09:19.828Z,5.12
2019-01-16T13:12:42.525Z,5.14
2019-01-16T13:16:05.398Z,5.23
2019-01-16T13:19:28.045Z,5.15
2019-01-16T13:22:49.329Z,5.06
2019-01-16T13:26:01.518Z,4.97
2019-01-16T13:29:18.453Z,4.94
2019-01-16T13:32:39.848Z,4.97
2019-01-16T13:36:01.821Z,4.90
2019-01-16T13:39:11.673Z,4.89
2019-01-16T13:42:32.088Z,5.10
2019-01-16T13:45:42.448Z,5.56
2019-01-16T13:49:04.801Z,6.23
2019-01-16T13:52:23.627Z,6.56
2019-01-16T13:55:33.253Z,6.22
2019-01-16T13:58:49.255Z,5.79
2019-01-16T14:01:55.894Z,5.49
2019-01-16T14:05:02.543Z,5.12
2019-01-16T14:08:08.871Z,5.04
2019-01-16T14:11:34.037Z,4.92
2019-01-16T14:14:38.591Z,4.92
2019-01-16T14:17:46.266Z,4.92
2019-01-16T14:21:08.826Z,4.97
2019-01-16T14:24:27.066Z,4.81
2019-01-16T14:27:48.678Z,4.68
2019-01-16T14:31:13.375Z,4.72
2019-01-16T14:34:31.639Z,4.54
2019-01-16T14:37:53.923Z,4.43
2019-01-16T14:41:00.193Z,4.50
2019-01-16T14:44:19.019Z,4.48
2019-01-16T14:47:25.322Z,4.35
2019-01-16T14:50:31.877Z,4.17
2019-01-16T14:53:38.163Z,4.10
2019-01-16T14:56:50.608Z,3.98
2019-01-16T15:00:06.092Z,3.98
2019-01-16T15:03:24.673Z,3.82
2019-01-16T15:06:33.908Z,3.64
2019-01-16T15:09:46.172Z,3.49
2019-01-16T15:12:58.521Z,3.29
2019-01-16T15:16:05.255Z,3.15
2019-01-16T15:19:28.031Z,2.99
2019-01-16T15:22:34.629Z,2.84
2019-01-16T15:25:59.963Z,2.69
2019-01-16T15:29:10.432Z,2.53
2019-01-16T15:32:20.823Z,2.44
2019-01-16T15:35:37.470Z,2.36
2019-01-16T15:38:44.067Z,2.11
2019-01-16T15:41:50.397Z,1.97
2019-01-16T15:45:02.943Z,1.83
2019-01-16T15:51:50.626Z,1.62
2019-01-16T15:58:45.321Z,1.47
2019-01-16T16:06:18.106Z,1.28
2019-01-16T16:17:16.412Z,0.92
2019-01-16T16:20:59.685Z,0.94
2019-01-16T16:24:42.951Z,0.82
2019-01-16T16:28:25.955Z,0.79
2019-01-16T16:39:10.683Z,0.67
2019-01-16T16:42:47.529Z,0.67
2019-01-16T16:46:30.841Z,0.64
2019-01-16T16:50:14.160Z,0.66
2019-01-16T16:53:57.190Z,0.55
2019-01-16T16:57:21.643Z,0.54
2019-01-16T17:01:04.887Z,0.46
2019-01-16T17:07:59.736Z,0.32
2019-01-16T17:11:43.450Z,0.39
2019-01-16T17:15:47.703Z,0.42
2019-01-16T17:19:30.706Z,0.41
2019-01-16T17:23:13.942Z,0.31
2019-01-16T17:26:58.075Z,0.21
2019-01-16T17:30:41.482Z,0.17
2019-01-16T17:37:59.388Z,0.11
2019-01-16T17:45:12.509Z,0.15
2019-01-16T17:48:55.615Z,0.04
2019-01-16T17:52:39.003Z,-0.04
2019-01-16T17:56:22.246Z,0.05
2019-01-16T17:59:45.937Z,0.05
2019-01-16T18:10:49.979Z,0.15
2019-01-16T18:14:33.232Z,0.10
2019-01-16T18:18:16.480Z,0.16
2019-01-16T18:21:59.503Z,0.06
2019-01-16T18:25:06.991Z,0.06
2019-01-16T18:32:35.160Z,0.06
2019-01-16T18:46:25.082Z,0.07
2019-01-16T18:50:08.363Z,0.15
2019-01-16T18:53:51.360Z,0.16
2019-01-16T19:11:39.667Z,-0.01
2019-01-16T19:15:11.672Z,0.05
2019-01-16T19:18:54.734Z,0.02
2019-01-16T19:22:37.711Z,0.00
2019-01-16T19:26:20.984Z,0.00
2019-01-16T19:30:04.023Z,-0.06
2019-01-16T19:36:58.585Z,-0.06
2019-01-16T19:44:19.002Z,-0.19
2019-01-16T19:48:01.982Z,-0.18
2019-01-16T19:51:45.215Z,-0.19
2019-01-16T19:59:01.058Z,-0.15
2019-01-16T20:02:44.134Z,-0.10
2019-01-16T20:06:27.274Z,-0.19
2019-01-16T20:10:10.338Z,-0.08
2019-01-16T20:13:53.341Z,-0.07
2019-01-16T20:21:20.921Z,-0.01
2019-01-16T20:25:03.989Z,-0.06
2019-01-16T20:28:47.303Z,-0.01
2019-01-16T20:32:30.540Z,-0.05
2019-01-16T20:36:13.763Z,0.07
2019-01-16T20:39:56.743Z,0.00
2019-01-16T20:43:15.276Z,0.02
2019-01-16T20:46:58.563Z,-0.10
2019-01-16T20:50:41.653Z,-0.02
2019-01-16T20:54:24.846Z,0.07
2019-01-16T20:58:08.090Z,0.05
2019-01-16T21:01:32.578Z,0.13
2019-01-16T21:04:42.108Z,0.20
2019-01-16T21:08:25.117Z,0.34
2019-01-16T21:12:08.139Z,0.39
2019-01-16T21:16:12.755Z,0.37
2019-01-16T21:19:55.779Z,0.46
2019-01-16T21:23:38.993Z,0.41
2019-01-16T21:27:22.239Z,0.34
2019-01-16T21:31:05.249Z,0.28
2019-01-16T21:38:33.064Z,0.29
2019-01-16T21:41:54.022Z,0.59
2019-01-16T21:45:37.322Z,0.68
2019-01-16T21:53:04.949Z,0.70
2019-01-16T22:00:18.909Z,0.28
2019-01-16T22:04:01.911Z,0.18
2019-01-16T22:07:25.746Z,0.09
2019-01-16T22:11:08.757Z,0.15
2019-01-16T22:18:22.596Z,0.44
2019-01-16T22:25:50.568Z,0.53
2019-01-16T22:29:14.319Z,0.75
2019-01-16T22:32:57.811Z,0.72
2019-01-16T22:36:41.120Z,0.75
2019-01-16T22:40:44.956Z,0.77
2019-01-16T22:44:03.140Z,0.86
2019-01-16T22:51:31.171Z,0.71
2019-01-16T22:55:14.240Z,0.53
2019-01-16T22:58:57.578Z,0.41
2019-01-16T23:06:25.486Z,0.23
2019-01-16T23:20:45.429Z,-0.01
2019-01-16T23:27:59.812Z,-0.20
2019-01-16T23:31:23.883Z,-0.24
2019-01-16T23:38:38.101Z,0.28
2019-01-16T23:42:00.476Z,-0.08
2019-01-16T23:45:43.725Z,-0.30
2019-01-16T23:53:11.306Z,-0.72
2019-01-16T23:56:54.391Z,-0.88
